createdAt,value
2016-12-28T00:00:27.413Z,27.87
2016-12-28T00:00:55.620Z,27.91
2016-12-28T00:01:23.760Z,27.85
2016-12-28T00:02:34.980Z,27.93
2016-12-28T00:03:03.193Z,27.91
2016-12-28T00:03:31.442Z,27.83
2016-12-28T00:03:59.778Z,27.98
2016-12-28T00:04:27.947Z,27.88
2016-12-28T00:04:55.994Z,27.97
2016-12-28T00:05:24.235Z,27.95
2016-12-28T00:05:52.467Z,27.95
2016-12-28T00:06:20.622Z,27.97
2016-12-28T00:06:48.733Z,27.98
2016-12-28T00:07:16.877Z,27.97
2016-12-28T00:08:28.192Z,27.95
2016-12-28T00:08:56.503Z,27.98
2016-12-28T00:09:24.848Z,27.97
2016-12-28T00:09:53.185Z,27.94
2016-12-28T00:10:21.449Z,28
2016-12-28T00:10:49.770Z,28.06
2016-12-28T00:11:18.092Z,27.98
2016-12-28T00:11:46.388Z,27.95
2016-12-28T00:12:14.543Z,28.01
2016-12-28T00:12:42.752Z,28.03
2016-12-28T00:13:10.992Z,28
2016-12-28T00:14:22.212Z,28
2016-12-28T00:14:50.428Z,28.09
2016-12-28T00:15:18.784Z,28.05
2016-12-28T00:15:47.023Z,28.1
2016-12-28T00:16:15.290Z,28.05
2016-12-28T00:16:43.610Z,27.98
2016-12-28T00:17:11.937Z,28.06
2016-12-28T00:17:40.172Z,28
2016-12-28T00:18:08.420Z,27.98
2016-12-28T00:18:36.447Z,27.93
2016-12-28T00:19:04.496Z,27.85
2016-12-28T00:20:15.812Z,27.88
2016-12-28T00:20:44.036Z,27.9
2016-12-28T00:21:12.294Z,27.88
2016-12-28T00:21:40.629Z,27.82
2016-12-28T00:22:08.891Z,27.88
2016-12-28T00:22:37.121Z,27.85
2016-12-28T00:23:05.259Z,27.87
2016-12-28T00:23:33.305Z,27.8
2016-12-28T00:24:01.271Z,27.83
2016-12-28T00:24:29.573Z,27.8
2016-12-28T00:24:57.715Z,27.82
2016-12-28T00:26:09.030Z,27.78
2016-12-28T00:26:37.154Z,27.79
2016-12-28T00:27:05.406Z,27.76
2016-12-28T00:27:33.741Z,27.73
2016-12-28T00:28:01.820Z,27.75
2016-12-28T00:28:30.139Z,27.76
2016-12-28T00:28:58.276Z,27.8
2016-12-28T00:29:26.507Z,27.72
2016-12-28T00:29:54.664Z,27.72
2016-12-28T00:30:22.871Z,27.79
2016-12-28T00:30:51.107Z,27.75
2016-12-28T00:32:02.232Z,27.73
2016-12-28T00:32:30.267Z,27.73
2016-12-28T00:32:58.332Z,27.8
2016-12-28T00:33:26.572Z,27.8
2016-12-28T00:33:54.841Z,27.82
2016-12-28T00:34:23.160Z,27.83
2016-12-28T00:34:51.384Z,27.91
2016-12-28T00:35:19.430Z,27.87
2016-12-28T00:35:47.576Z,27.88
2016-12-28T00:36:15.694Z,27.9
2016-12-28T00:36:43.839Z,27.79
2016-12-28T00:37:55.154Z,27.85
2016-12-28T00:38:23.461Z,27.69
2016-12-28T00:38:51.620Z,27.76
2016-12-28T00:39:19.862Z,27.72
2016-12-28T00:39:48.030Z,27.75
2016-12-28T00:40:16.162Z,27.75
2016-12-28T00:40:44.393Z,27.75
2016-12-28T00:41:12.719Z,27.78
2016-12-28T00:41:40.968Z,27.72
2016-12-28T00:42:08.991Z,27.72
2016-12-28T00:42:37.134Z,27.76
2016-12-28T00:43:48.541Z,27.73
2016-12-28T00:44:16.757Z,27.78
2016-12-28T00:44:45.009Z,27.76
2016-12-28T00:45:12.970Z,27.79
2016-12-28T00:45:41.237Z,27.76
2016-12-28T00:46:09.464Z,27.72
2016-12-28T00:46:37.695Z,27.75
2016-12-28T00:47:05.930Z,27.85
2016-12-28T00:47:34.089Z,27.8
2016-12-28T00:48:02.303Z,27.8
2016-12-28T00:48:30.628Z,27.68
2016-12-28T00:49:42.035Z,27.73
2016-12-28T00:50:10.159Z,27.69
2016-12-28T00:50:38.319Z,27.72
2016-12-28T00:51:06.559Z,27.69
2016-12-28T00:51:34.737Z,27.64
2016-12-28T00:52:02.964Z,27.64
2016-12-28T00:52:31.289Z,27.58
2016-12-28T00:52:59.426Z,27.7
2016-12-28T00:53:27.585Z,27.68
2016-12-28T00:53:55.700Z,27.66
2016-12-28T00:54:24.027Z,27.54
2016-12-28T00:55:35.248Z,27.63
2016-12-28T00:56:03.366Z,27.54
2016-12-28T00:56:31.619Z,27.54
2016-12-28T00:56:59.957Z,27.57
2016-12-28T00:57:28.221Z,27.57
2016-12-28T00:57:56.448Z,27.58
2016-12-28T00:58:24.585Z,27.54
2016-12-28T00:58:52.821Z,27.52
2016-12-28T00:59:20.976Z,27.53
2016-12-28T00:59:49.096Z,27.5
2016-12-28T01:00:17.239Z,27.57
2016-12-28T01:01:28.650Z,27.69
2016-12-28T01:01:56.772Z,27.54
2016-12-28T01:02:24.935Z,27.6
2016-12-28T01:02:52.895Z,27.6
2016-12-28T01:03:21.154Z,27.61
2016-12-28T01:03:49.475Z,27.49
2016-12-28T01:04:17.608Z,27.63
2016-12-28T01:04:45.839Z,27.54
2016-12-28T01:05:13.990Z,27.58
2016-12-28T01:05:42.199Z,27.61
2016-12-28T01:06:10.245Z,27.64
2016-12-28T01:07:21.372Z,27.66
2016-12-28T01:07:49.586Z,27.66
2016-12-28T01:08:17.748Z,27.61
2016-12-28T01:08:46.083Z,27.64
2016-12-28T01:09:14.250Z,27.6
2016-12-28T01:09:42.569Z,27.57
2016-12-28T01:10:10.804Z,27.69
2016-12-28T01:10:39.043Z,27.57
2016-12-28T01:11:07.099Z,27.58
2016-12-28T01:11:35.217Z,27.63
2016-12-28T01:12:03.173Z,27.57
2016-12-28T01:13:14.393Z,27.57
2016-12-28T01:13:42.520Z,27.52
2016-12-28T01:14:10.771Z,27.53
2016-12-28T01:14:38.927Z,27.52
2016-12-28T01:15:07.100Z,27.52
2016-12-28T01:15:35.325Z,27.49
2016-12-28T01:16:03.550Z,27.52
2016-12-28T01:16:31.877Z,27.47
2016-12-28T01:17:00.215Z,27.49
2016-12-28T01:17:28.426Z,27.52
2016-12-28T01:17:56.661Z,27.57
2016-12-28T01:19:07.967Z,27.4
2016-12-28T01:19:36.182Z,27.47
2016-12-28T01:20:04.525Z,27.44
2016-12-28T01:20:32.576Z,27.4
2016-12-28T01:21:00.746Z,27.41
2016-12-28T01:21:28.786Z,27.42
2016-12-28T01:21:57.019Z,27.38
2016-12-28T01:22:25.161Z,27.37
2016-12-28T01:22:53.411Z,27.35
2016-12-28T01:23:21.620Z,27.25
2016-12-28T01:23:49.760Z,27.34
2016-12-28T01:25:01.069Z,27.26
2016-12-28T01:25:29.197Z,27.2
2016-12-28T01:25:57.353Z,27.22
2016-12-28T01:26:25.498Z,27.34
2016-12-28T01:26:53.857Z,27.23
2016-12-28T01:27:22.085Z,27.35
2016-12-28T01:27:50.126Z,27.32
2016-12-28T01:28:18.262Z,27.22
2016-12-28T01:28:46.414Z,27.32
2016-12-28T01:29:14.626Z,27.3
2016-12-28T01:29:42.767Z,27.26
2016-12-28T01:30:54.107Z,27.34
2016-12-28T01:31:22.321Z,27.3
2016-12-28T01:31:50.574Z,27.26
2016-12-28T01:32:18.727Z,27.34
2016-12-28T01:32:46.992Z,27.23
2016-12-28T01:33:15.223Z,27.19
2016-12-28T01:33:43.545Z,27.34
2016-12-28T01:34:11.779Z,27.27
2016-12-28T01:34:40.053Z,27.3
2016-12-28T01:35:08.169Z,27.34
2016-12-28T01:35:36.309Z,27.32
2016-12-28T01:36:47.531Z,27.32
2016-12-28T01:37:15.747Z,27.26
2016-12-28T01:37:43.903Z,27.27
2016-12-28T01:38:12.238Z,27.31
2016-12-28T01:38:40.501Z,27.3
2016-12-28T01:39:08.544Z,27.31
2016-12-28T01:39:36.870Z,27.26
2016-12-28T01:40:05.196Z,27.27
2016-12-28T01:40:33.536Z,27.25
2016-12-28T01:41:01.744Z,27.37
2016-12-28T01:41:29.984Z,27.34
2016-12-28T01:42:41.295Z,27.42
2016-12-28T01:43:09.416Z,27.4
2016-12-28T01:43:37.665Z,27.41
2016-12-28T01:44:05.912Z,27.32
2016-12-28T01:44:34.265Z,27.37
2016-12-28T01:45:02.491Z,27.32
2016-12-28T01:45:30.448Z,27.32
2016-12-28T01:45:58.683Z,27.34
2016-12-28T01:46:26.838Z,27.26
2016-12-28T01:46:55.141Z,27.38
2016-12-28T01:47:23.375Z,27.3
2016-12-28T01:48:34.781Z,27.3
2016-12-28T01:49:03.001Z,27.25
2016-12-28T01:49:31.163Z,27.32
2016-12-28T01:49:59.498Z,27.2
2016-12-28T01:50:27.765Z,27.17
2016-12-28T01:50:55.994Z,27.26
2016-12-28T01:51:24.317Z,27.26
2016-12-28T01:51:52.643Z,27.23
2016-12-28T01:52:20.980Z,27.31
2016-12-28T01:52:49.099Z,27.3
2016-12-28T01:53:17.332Z,27.26
2016-12-28T01:54:28.555Z,27.34
2016-12-28T01:54:56.771Z,27.3
2016-12-28T01:55:24.927Z,27.35
2016-12-28T01:55:52.986Z,27.32
2016-12-28T01:56:21.247Z,27.2
2016-12-28T01:56:49.480Z,27.35
2016-12-28T01:57:17.718Z,27.23
2016-12-28T01:57:46.044Z,27.19
2016-12-28T01:58:14.286Z,27.2
2016-12-28T01:58:42.311Z,27.25
2016-12-28T01:59:10.361Z,27.27
2016-12-28T02:00:21.778Z,27.25
2016-12-28T02:00:50.077Z,27.23
2016-12-28T02:01:18.236Z,27.22
2016-12-28T02:01:46.379Z,27.3
2016-12-28T02:02:14.550Z,27.31
2016-12-28T02:02:42.687Z,27.3
2016-12-28T02:03:10.915Z,27.35
2016-12-28T02:03:38.961Z,27.26
2016-12-28T02:04:07.208Z,27.26
2016-12-28T02:04:35.409Z,27.25
2016-12-28T02:05:03.643Z,27.27
2016-12-28T02:06:14.859Z,27.23
2016-12-28T02:06:43.073Z,27.3
2016-12-28T02:07:11.140Z,27.32
2016-12-28T02:07:39.192Z,27.26
2016-12-28T02:08:07.362Z,27.31
2016-12-28T02:08:35.498Z,27.32
2016-12-28T02:09:03.541Z,27.37
2016-12-28T02:09:31.582Z,27.32
2016-12-28T02:09:59.731Z,27.26
2016-12-28T02:10:27.660Z,27.37
2016-12-28T02:10:55.794Z,27.32
2016-12-28T02:12:07.105Z,27.26
2016-12-28T02:12:35.036Z,27.23
2016-12-28T02:13:03.376Z,27.3
2016-12-28T02:13:31.618Z,27.25
2016-12-28T02:13:59.882Z,27.22
2016-12-28T02:14:28.016Z,27.22
2016-12-28T02:14:56.070Z,27.25
2016-12-28T02:15:24.397Z,27.35
2016-12-28T02:15:52.547Z,27.32
2016-12-28T02:16:20.757Z,27.35
2016-12-28T02:16:49.086Z,27.34
2016-12-28T02:18:00.495Z,27.3
2016-12-28T02:18:28.708Z,27.25
2016-12-28T02:18:56.960Z,27.26
2016-12-28T02:19:25.204Z,27.26
2016-12-28T02:19:53.469Z,27.22
2016-12-28T02:20:21.510Z,27.16
2016-12-28T02:20:49.658Z,27.19
2016-12-28T02:21:17.888Z,27.19
2016-12-28T02:21:46.132Z,27.17
2016-12-28T02:22:14.248Z,27.17
2016-12-28T02:22:42.484Z,27.1
2016-12-28T02:23:53.707Z,27.05
2016-12-28T02:24:22.015Z,27.12
2016-12-28T02:24:50.075Z,26.95
2016-12-28T02:25:18.035Z,26.97
2016-12-28T02:25:46.300Z,27
2016-12-28T02:26:14.529Z,27.05
2016-12-28T02:26:42.677Z,27.01
2016-12-28T02:27:10.722Z,26.95
2016-12-28T02:27:38.782Z,26.97
2016-12-28T02:28:06.927Z,27.03
2016-12-28T02:28:35.262Z,26.98
2016-12-28T02:29:46.572Z,26.97
2016-12-28T02:30:14.692Z,26.9
2016-12-28T02:30:42.948Z,26.94
2016-12-28T02:31:11.188Z,26.88
2016-12-28T02:31:39.360Z,26.98
2016-12-28T02:32:07.588Z,26.95
2016-12-28T02:32:35.724Z,26.98
2016-12-28T02:33:03.956Z,26.97
2016-12-28T02:33:32.207Z,27.03
2016-12-28T02:34:00.324Z,27.01
2016-12-28T02:34:28.471Z,27.05
2016-12-28T02:35:39.876Z,27.08
2016-12-28T02:36:07.996Z,27.1
2016-12-28T02:36:36.153Z,27.13
2016-12-28T02:37:04.488Z,27.13
2016-12-28T02:37:32.660Z,27.07
2016-12-28T02:38:00.884Z,27.16
2016-12-28T02:38:29.116Z,27.12
2016-12-28T02:38:57.439Z,27.13
2016-12-28T02:39:25.599Z,27.12
2016-12-28T02:39:53.903Z,27.03
2016-12-28T02:40:22.142Z,26.93
2016-12-28T02:41:33.547Z,26.98
2016-12-28T02:42:01.761Z,26.98
2016-12-28T02:42:30.107Z,27
2016-12-28T02:42:58.440Z,26.95
2016-12-28T02:43:26.800Z,26.93
2016-12-28T02:43:55.030Z,27.01
2016-12-28T02:44:23.358Z,26.98
2016-12-28T02:44:51.588Z,27.07
2016-12-28T02:45:19.840Z,27.04
2016-12-28T02:45:48.050Z,27.03
2016-12-28T02:46:16.294Z,27.01
2016-12-28T02:47:27.604Z,27.1
2016-12-28T02:47:55.723Z,27.05
2016-12-28T02:48:23.975Z,27.08
2016-12-28T02:48:52.214Z,27.1
2016-12-28T02:49:20.292Z,27.05
2016-12-28T02:49:48.337Z,27.08
2016-12-28T02:50:16.475Z,27.08
2016-12-28T02:50:44.801Z,27.12
2016-12-28T02:51:12.958Z,27.1
2016-12-28T02:51:40.980Z,27.13
2016-12-28T02:52:09.120Z,27.2
2016-12-28T02:53:20.438Z,27.22
2016-12-28T02:53:48.745Z,27.23
2016-12-28T02:54:16.901Z,27.25
2016-12-28T02:54:45.138Z,27.19
2016-12-28T02:55:13.403Z,27.17
2016-12-28T02:55:41.721Z,27.15
2016-12-28T02:56:10.046Z,27.25
2016-12-28T02:56:38.282Z,27.16
2016-12-28T02:57:06.433Z,27.16
2016-12-28T02:57:34.732Z,27.16
2016-12-28T02:58:02.970Z,27.19
2016-12-28T02:59:14.377Z,27.16
2016-12-28T02:59:42.504Z,27.17
2016-12-28T03:00:10.856Z,27.17
2016-12-28T03:00:39.091Z,27.13
2016-12-28T03:01:07.355Z,27.16
2016-12-28T03:01:35.680Z,27.16
2016-12-28T03:02:03.726Z,27.08
2016-12-28T03:02:32.054Z,27.15
2016-12-28T03:03:00.207Z,27.1
2016-12-28T03:03:28.507Z,27.04
2016-12-28T03:03:56.556Z,27.07
2016-12-28T03:05:07.959Z,26.95
2016-12-28T03:05:35.984Z,26.95
2016-12-28T03:06:04.145Z,26.95
2016-12-28T03:06:32.236Z,26.95
2016-12-28T03:07:00.407Z,26.83
2016-12-28T03:07:28.540Z,26.88
2016-12-28T03:07:56.674Z,26.83
2016-12-28T03:08:24.997Z,26.89
2016-12-28T03:08:53.153Z,26.95
2016-12-28T03:09:21.450Z,26.86
2016-12-28T03:09:49.779Z,26.82
2016-12-28T03:11:01.001Z,26.89
2016-12-28T03:11:29.152Z,26.86
2016-12-28T03:11:57.406Z,26.85
2016-12-28T03:12:25.647Z,26.83
2016-12-28T03:12:53.909Z,26.86
2016-12-28T03:13:22.045Z,26.9
2016-12-28T03:13:50.276Z,26.86
2016-12-28T03:14:18.606Z,26.86
2016-12-28T03:14:46.666Z,26.9
2016-12-28T03:15:14.966Z,26.88
2016-12-28T03:15:43.201Z,26.9
2016-12-28T03:16:54.607Z,26.83
2016-12-28T03:17:22.746Z,26.83
2016-12-28T03:17:50.904Z,26.79
2016-12-28T03:18:19.055Z,26.83
2016-12-28T03:18:47.415Z,26.75
2016-12-28T03:19:15.644Z,26.7
2016-12-28T03:19:43.966Z,26.73
2016-12-28T03:20:12.197Z,26.6
2016-12-28T03:20:40.349Z,26.75
2016-12-28T03:21:08.558Z,26.75
2016-12-28T03:21:36.796Z,26.7
2016-12-28T03:22:48.202Z,26.68
2016-12-28T03:23:16.509Z,26.7
2016-12-28T03:23:44.761Z,26.67
2016-12-28T03:24:13.092Z,26.71
2016-12-28T03:24:41.451Z,26.67
2016-12-28T03:25:09.772Z,26.68
2016-12-28T03:25:38.003Z,26.64
2016-12-28T03:26:06.146Z,26.65
2016-12-28T03:26:34.302Z,26.58
2016-12-28T03:27:02.510Z,26.71
2016-12-28T03:27:30.562Z,26.63
2016-12-28T03:28:41.687Z,26.56
2016-12-28T03:29:09.900Z,26.56
2016-12-28T03:29:38.061Z,26.58
2016-12-28T03:30:06.298Z,26.58
2016-12-28T03:30:34.566Z,26.58
2016-12-28T03:31:02.787Z,26.63
2016-12-28T03:31:31.014Z,26.61
2016-12-28T03:31:59.190Z,26.6
2016-12-28T03:32:27.157Z,26.57
2016-12-28T03:32:55.365Z,26.53
2016-12-28T03:33:23.596Z,26.58
2016-12-28T03:34:34.912Z,26.58
2016-12-28T03:35:03.032Z,26.57
2016-12-28T03:35:31.190Z,26.57
2016-12-28T03:35:59.272Z,26.58
2016-12-28T03:36:27.538Z,26.53
2016-12-28T03:36:55.758Z,26.53
2016-12-28T03:37:24.079Z,26.56
2016-12-28T03:37:52.123Z,26.49
2016-12-28T03:38:20.369Z,26.56
2016-12-28T03:38:48.669Z,26.57
2016-12-28T03:39:16.905Z,26.52
2016-12-28T03:40:28.314Z,26.42
2016-12-28T03:40:56.620Z,26.36
2016-12-28T03:41:24.781Z,26.38
2016-12-28T03:41:52.930Z,26.41
2016-12-28T03:42:21.285Z,26.41
2016-12-28T03:42:49.611Z,26.34
2016-12-28T03:43:17.930Z,26.36
2016-12-28T03:43:46.256Z,26.39
2016-12-28T03:44:14.496Z,26.36
2016-12-28T03:44:42.704Z,26.34
2016-12-28T03:45:10.938Z,26.39
2016-12-28T03:46:22.256Z,26.41
2016-12-28T03:46:50.378Z,26.33
2016-12-28T03:47:18.720Z,26.23
2016-12-28T03:47:47.053Z,26.39
2016-12-28T03:48:15.318Z,26.36
2016-12-28T03:48:43.547Z,26.41
2016-12-28T03:49:11.863Z,26.3
2016-12-28T03:49:40.091Z,26.36
2016-12-28T03:50:08.429Z,26.33
2016-12-28T03:50:36.636Z,26.34
2016-12-28T03:51:04.778Z,26.31
2016-12-28T03:52:16.093Z,26.36
2016-12-28T03:52:44.403Z,26.33
2016-12-28T03:53:12.743Z,26.34
2016-12-28T03:53:40.983Z,26.34
2016-12-28T03:54:09.152Z,26.38
2016-12-28T03:54:37.284Z,26.39
2016-12-28T03:55:05.508Z,26.34
2016-12-28T03:55:33.734Z,26.33
2016-12-28T03:56:01.887Z,26.34
2016-12-28T03:56:30.093Z,26.31
2016-12-28T03:56:58.425Z,26.39
2016-12-28T03:58:09.832Z,26.33
2016-12-28T03:58:38.053Z,26.34
2016-12-28T03:59:06.297Z,26.43
2016-12-28T03:59:34.630Z,26.41
2016-12-28T04:00:02.988Z,26.39
2016-12-28T04:00:31.306Z,26.43
2016-12-28T04:00:59.533Z,26.43
2016-12-28T04:01:27.763Z,26.43
2016-12-28T04:01:56.099Z,26.39
2016-12-28T04:02:24.317Z,26.45
2016-12-28T04:02:52.552Z,26.46
2016-12-28T04:04:03.961Z,26.53
2016-12-28T04:04:32.177Z,26.52
2016-12-28T04:05:00.337Z,26.53
2016-12-28T04:05:28.483Z,26.53
2016-12-28T04:05:56.774Z,26.65
2016-12-28T04:06:24.907Z,26.68
2016-12-28T04:06:53.226Z,26.64
2016-12-28T04:07:21.551Z,26.63
2016-12-28T04:07:49.704Z,26.61
2016-12-28T04:08:18.007Z,26.7
2016-12-28T04:08:46.244Z,26.63
2016-12-28T04:09:57.654Z,26.64
2016-12-28T04:10:25.776Z,26.7
2016-12-28T04:10:54.119Z,26.6
2016-12-28T04:11:22.451Z,26.65
2016-12-28T04:11:50.711Z,26.61
2016-12-28T04:12:18.939Z,26.71
2016-12-28T04:12:47.168Z,26.68
2016-12-28T04:13:15.488Z,26.64
2016-12-28T04:13:43.738Z,26.67
2016-12-28T04:14:12.039Z,26.64
2016-12-28T04:14:40.272Z,26.67
2016-12-28T04:15:51.589Z,26.61
2016-12-28T04:16:19.709Z,26.67
2016-12-28T04:16:47.865Z,26.63
2016-12-28T04:17:16.107Z,26.61
2016-12-28T04:17:44.467Z,26.6
2016-12-28T04:18:12.688Z,26.58
2016-12-28T04:18:40.913Z,26.61
2016-12-28T04:19:09.049Z,26.58
2016-12-28T04:19:37.391Z,26.68
2016-12-28T04:20:05.509Z,26.64
2016-12-28T04:20:33.838Z,26.65
2016-12-28T04:21:45.152Z,26.51
2016-12-28T04:22:13.458Z,26.58
2016-12-28T04:22:41.523Z,26.6
2016-12-28T04:23:09.858Z,26.52
2016-12-28T04:23:38.214Z,26.58
2016-12-28T04:24:06.537Z,26.52
2016-12-28T04:24:34.674Z,26.6
2016-12-28T04:25:02.813Z,26.56
2016-12-28T04:25:31.064Z,26.53
2016-12-28T04:25:59.364Z,26.46
2016-12-28T04:26:27.693Z,26.43
2016-12-28T04:27:38.825Z,26.41
2016-12-28T04:28:06.952Z,26.34
2016-12-28T04:28:35.296Z,26.33
2016-12-28T04:29:03.622Z,26.28
2016-12-28T04:29:31.891Z,26.34
2016-12-28T04:30:00.212Z,26.34
2016-12-28T04:30:28.439Z,26.34
2016-12-28T04:30:56.667Z,26.36
2016-12-28T04:31:24.913Z,26.38
2016-12-28T04:31:53.121Z,26.27
2016-12-28T04:32:21.166Z,26.31
2016-12-28T04:33:32.387Z,26.26
2016-12-28T04:34:00.602Z,26.28
2016-12-28T04:34:28.758Z,26.33
2016-12-28T04:34:57.092Z,26.36
2016-12-28T04:35:25.445Z,26.36
2016-12-28T04:35:53.672Z,26.31
2016-12-28T04:36:21.901Z,26.39
2016-12-28T04:36:50.038Z,26.39
2016-12-28T04:37:18.376Z,26.36
2016-12-28T04:37:46.680Z,26.39
2016-12-28T04:38:15.007Z,26.41
2016-12-28T04:39:26.136Z,26.34
2016-12-28T04:39:54.445Z,26.3
2016-12-28T04:40:22.605Z,26.41
2016-12-28T04:40:50.843Z,26.38
2016-12-28T04:41:19.107Z,26.21
2016-12-28T04:41:47.246Z,26.34
2016-12-28T04:42:15.225Z,26.36
2016-12-28T04:42:43.547Z,26.19
2016-12-28T04:43:11.695Z,26.34
2016-12-28T04:43:39.996Z,26.33
2016-12-28T04:44:08.138Z,26.3
2016-12-28T04:45:19.455Z,26.33
2016-12-28T04:45:47.671Z,26.31
2016-12-28T04:46:15.826Z,26.31
2016-12-28T04:46:43.878Z,26.34
2016-12-28T04:47:12.052Z,26.31
2016-12-28T04:47:40.280Z,26.36
2016-12-28T04:48:08.510Z,26.31
2016-12-28T04:48:36.645Z,26.36
2016-12-28T04:49:04.987Z,26.36
2016-12-28T04:49:33.013Z,26.31
2016-12-28T04:50:01.258Z,26.36
2016-12-28T04:51:12.565Z,26.31
2016-12-28T04:51:40.687Z,26.31
2016-12-28T04:52:08.848Z,26.34
2016-12-28T04:52:37.090Z,26.36
2016-12-28T04:53:05.171Z,26.34
2016-12-28T04:53:33.394Z,26.3
2016-12-28T04:54:01.713Z,26.34
2016-12-28T04:54:29.942Z,26.28
2016-12-28T04:54:58.283Z,26.28
2016-12-28T04:55:26.487Z,26.31
2016-12-28T04:55:54.627Z,26.27
2016-12-28T04:57:05.938Z,26.21
2016-12-28T04:57:33.969Z,26.2
2016-12-28T04:58:02.038Z,26.19
2016-12-28T04:58:30.181Z,26.26
2016-12-28T04:58:58.539Z,26.31
2016-12-28T04:59:26.766Z,26.26
2016-12-28T04:59:55.073Z,26.3
2016-12-28T05:00:23.373Z,26.15
2016-12-28T05:00:51.425Z,26.21
2016-12-28T05:01:19.637Z,26.16
2016-12-28T05:01:47.962Z,26.15
2016-12-28T05:02:59.367Z,26.11
2016-12-28T05:03:27.491Z,26.01
2016-12-28T05:03:55.654Z,26.05
2016-12-28T05:04:23.898Z,26.05
2016-12-28T05:04:52.160Z,26.01
2016-12-28T05:05:20.385Z,26.04
2016-12-28T05:05:48.426Z,26
2016-12-28T05:06:16.651Z,26
2016-12-28T05:06:44.900Z,26.03
2016-12-28T05:07:13.019Z,26
2016-12-28T05:07:41.251Z,25.96
2016-12-28T05:08:52.560Z,26
2016-12-28T05:09:20.678Z,26
2016-12-28T05:09:48.934Z,25.96
2016-12-28T05:10:17.081Z,25.93
2016-12-28T05:10:45.254Z,25.89
2016-12-28T05:11:13.382Z,25.9
2016-12-28T05:11:41.515Z,26.01
2016-12-28T05:12:09.468Z,25.9
2016-12-28T05:12:37.530Z,25.85
2016-12-28T05:13:05.739Z,26
2016-12-28T05:13:33.974Z,25.88
2016-12-28T05:14:45.286Z,25.95
2016-12-28T05:15:13.411Z,25.88
2016-12-28T05:15:41.663Z,25.96
2016-12-28T05:16:09.996Z,25.96
2016-12-28T05:16:38.351Z,26
2016-12-28T05:17:06.490Z,25.93
2016-12-28T05:17:34.812Z,25.89
2016-12-28T05:18:02.949Z,25.85
2016-12-28T05:18:31.103Z,25.9
2016-12-28T05:18:59.405Z,25.98
2016-12-28T05:19:27.638Z,26
2016-12-28T05:20:39.044Z,25.98
2016-12-28T05:21:07.262Z,25.92
2016-12-28T05:21:35.606Z,25.89
2016-12-28T05:22:03.842Z,25.9
2016-12-28T05:22:32.198Z,25.9
2016-12-28T05:23:00.521Z,25.9
2016-12-28T05:23:28.559Z,25.83
2016-12-28T05:23:56.787Z,25.83
2016-12-28T05:24:25.027Z,25.88
2016-12-28T05:24:53.235Z,25.85
2016-12-28T05:25:21.374Z,25.92
2016-12-28T05:26:32.604Z,25.92
2016-12-28T05:27:00.711Z,25.88
2016-12-28T05:27:29.052Z,25.81
2016-12-28T05:27:57.293Z,25.81
2016-12-28T05:28:25.555Z,25.86
2016-12-28T05:28:53.685Z,25.77
2016-12-28T05:29:21.716Z,25.83
2016-12-28T05:29:49.943Z,25.77
2016-12-28T05:30:18.189Z,25.83
2016-12-28T05:30:46.398Z,25.74
2016-12-28T05:31:14.725Z,25.82
2016-12-28T05:32:26.041Z,25.81
2016-12-28T05:32:54.350Z,25.67
2016-12-28T05:33:22.506Z,25.83
2016-12-28T05:33:50.753Z,25.7
2016-12-28T05:34:18.926Z,25.81
2016-12-28T05:34:47.153Z,25.74
2016-12-28T05:35:15.385Z,25.81
2016-12-28T05:35:43.429Z,25.73
2016-12-28T05:36:11.680Z,25.85
2016-12-28T05:36:39.795Z,25.78
2016-12-28T05:37:07.881Z,25.77
2016-12-28T05:38:19.195Z,25.78
2016-12-28T05:38:47.406Z,25.77
2016-12-28T05:39:15.564Z,25.81
2016-12-28T05:39:43.715Z,25.82
2016-12-28T05:40:11.975Z,25.81
2016-12-28T05:40:40.294Z,25.77
2016-12-28T05:41:08.427Z,25.89
2016-12-28T05:41:36.751Z,25.83
2016-12-28T05:42:04.995Z,25.73
2016-12-28T05:42:33.204Z,25.78
2016-12-28T05:43:01.434Z,25.81
2016-12-28T05:44:12.747Z,25.75
2016-12-28T05:44:41.056Z,25.82
2016-12-28T05:45:09.306Z,25.78
2016-12-28T05:45:37.543Z,25.77
2016-12-28T05:46:05.903Z,25.77
2016-12-28T05:46:34.129Z,25.82
2016-12-28T05:47:02.262Z,25.81
2016-12-28T05:47:30.488Z,25.88
2016-12-28T05:47:58.731Z,25.89
2016-12-28T05:48:27.030Z,25.83
2016-12-28T05:48:54.989Z,25.9
2016-12-28T05:50:06.302Z,25.92
2016-12-28T05:50:34.521Z,25.82
2016-12-28T05:51:02.868Z,25.83
2016-12-28T05:51:31.112Z,25.82
2016-12-28T05:51:59.472Z,25.82
2016-12-28T05:52:27.513Z,25.83
2016-12-28T05:52:55.744Z,25.85
2016-12-28T05:53:23.972Z,25.81
2016-12-28T05:53:52.126Z,25.74
2016-12-28T05:54:20.430Z,25.81
2016-12-28T05:54:48.668Z,25.77
2016-12-28T05:56:00.075Z,25.83
2016-12-28T05:56:28.323Z,25.74
2016-12-28T05:56:56.573Z,25.75
2016-12-28T05:57:24.720Z,25.83
2016-12-28T05:57:52.982Z,25.86
2016-12-28T05:58:21.116Z,25.78
2016-12-28T05:58:49.343Z,25.85
2016-12-28T05:59:17.664Z,25.82
2016-12-28T05:59:46.002Z,25.81
2016-12-28T06:00:14.211Z,25.82
2016-12-28T06:00:42.356Z,25.81
2016-12-28T06:01:53.666Z,25.83
2016-12-28T06:02:21.888Z,25.81
2016-12-28T06:02:50.230Z,25.77
2016-12-28T06:03:18.565Z,25.75
2016-12-28T06:03:46.921Z,25.78
2016-12-28T06:04:15.051Z,25.81
2016-12-28T06:04:43.369Z,25.83
2016-12-28T06:05:11.417Z,25.81
2016-12-28T06:05:39.563Z,25.75
2016-12-28T06:06:07.678Z,25.74
2016-12-28T06:06:36.004Z,25.7
2016-12-28T06:07:47.414Z,25.73
2016-12-28T06:08:15.532Z,25.77
2016-12-28T06:08:43.688Z,25.77
2016-12-28T06:09:11.657Z,25.7
2016-12-28T06:09:39.924Z,25.7
2016-12-28T06:10:08.153Z,25.63
2016-12-28T06:10:36.285Z,25.66
2016-12-28T06:11:04.424Z,25.55
2016-12-28T06:11:32.668Z,25.55
2016-12-28T06:12:00.879Z,25.56
2016-12-28T06:12:29.117Z,25.58
2016-12-28T06:13:40.340Z,25.52
2016-12-28T06:14:08.369Z,25.53
2016-12-28T06:14:36.525Z,25.56
2016-12-28T06:15:04.670Z,25.58
2016-12-28T06:15:32.839Z,25.53
2016-12-28T06:16:00.972Z,25.49
2016-12-28T06:16:29.196Z,25.63
2016-12-28T06:16:57.423Z,25.73
2016-12-28T06:17:25.569Z,25.66
2016-12-28T06:17:53.682Z,25.71
2016-12-28T06:18:21.726Z,25.56
2016-12-28T06:19:33.039Z,25.63
2016-12-28T06:20:01.252Z,25.53
2016-12-28T06:20:29.501Z,25.55
2016-12-28T06:20:57.833Z,25.55
2016-12-28T06:21:26.095Z,25.55
2016-12-28T06:21:54.319Z,25.61
2016-12-28T06:22:22.635Z,25.59
2016-12-28T06:22:50.782Z,25.56
2016-12-28T06:23:18.652Z,25.53
2016-12-28T06:23:46.668Z,25.53
2016-12-28T06:24:14.810Z,25.56
2016-12-28T06:25:26.024Z,25.55
2016-12-28T06:25:54.242Z,25.58
2016-12-28T06:26:22.582Z,25.64
2016-12-28T06:26:50.631Z,25.52
2016-12-28T06:27:18.896Z,25.56
2016-12-28T06:27:47.117Z,25.59
2016-12-28T06:28:15.059Z,25.58
2016-12-28T06:28:43.190Z,25.7
2016-12-28T06:29:11.432Z,25.56
2016-12-28T06:29:39.636Z,25.55
2016-12-28T06:30:07.684Z,25.56
2016-12-28T06:31:18.996Z,25.67
2016-12-28T06:31:47.211Z,25.68
2016-12-28T06:32:15.364Z,25.68
2016-12-28T06:32:43.600Z,25.68
2016-12-28T06:33:11.770Z,25.67
2016-12-28T06:33:40.089Z,25.73
2016-12-28T06:34:08.222Z,25.71
2016-12-28T06:34:36.451Z,25.73
2016-12-28T06:35:04.788Z,25.67
2016-12-28T06:35:32.715Z,25.73
2016-12-28T06:36:00.950Z,25.73
2016-12-28T06:37:12.167Z,25.71
2016-12-28T06:37:40.286Z,25.71
2016-12-28T06:38:08.349Z,25.68
2016-12-28T06:38:36.682Z,25.63
2016-12-28T06:39:04.853Z,25.68
2016-12-28T06:39:33.078Z,25.7
2016-12-28T06:40:01.305Z,25.67
2016-12-28T06:40:29.442Z,25.71
2016-12-28T06:40:57.593Z,25.71
2016-12-28T06:41:25.612Z,25.71
2016-12-28T06:41:53.751Z,25.63
2016-12-28T06:43:05.150Z,25.66
2016-12-28T06:43:33.174Z,25.7
2016-12-28T06:44:01.232Z,25.66
2016-12-28T06:44:29.376Z,25.68
2016-12-28T06:44:57.546Z,25.73
2016-12-28T06:45:25.480Z,25.63
2016-12-28T06:45:53.599Z,25.53
2016-12-28T06:46:21.620Z,25.56
2016-12-28T06:46:49.771Z,25.56
2016-12-28T06:47:17.982Z,25.52
2016-12-28T06:47:46.118Z,25.51
2016-12-28T06:48:57.338Z,25.51
2016-12-28T06:49:25.554Z,25.55
2016-12-28T06:49:53.709Z,25.45
2016-12-28T06:50:21.761Z,25.49
2016-12-28T06:50:50.117Z,25.43
2016-12-28T06:51:18.430Z,25.49
2016-12-28T06:51:46.658Z,25.4
2016-12-28T06:52:14.787Z,25.48
2016-12-28T06:52:42.941Z,25.48
2016-12-28T06:53:11.145Z,25.49
2016-12-28T06:53:39.099Z,25.45
2016-12-28T06:54:50.313Z,25.46
2016-12-28T06:55:18.526Z,25.43
2016-12-28T06:55:46.865Z,25.53
2016-12-28T06:56:15.013Z,25.56